CDT,Max TemperatureF,Mean TemperatureF,Min TemperatureF,Max Dew PointF,MeanDew PointF,Min DewpointF,Max Humidity, Mean Humidity, Min Humidity, Max Sea Level PressureIn, Mean Sea Level PressureIn, Min Sea Level PressureIn, Max VisibilityMiles, Mean VisibilityMiles, Min VisibilityMiles, Max Wind SpeedMPH, Mean Wind SpeedMPH, Max Gust SpeedMPH,PrecipitationIn, CloudCover, Events, WindDirDegrees
2013-8-1,81,70,59,70,62,59,100,80,48,30.06,30.02,29.99,10,7,0,13,4,20,0.02,1,Fog,297
2013-8-2,79,68,58,69,64,58,99,84,70,30.02,29.98,29.95,10,10,7,14,5,20,0.00,3,,207
2013-8-3,82,72,61,69,66,58,97,79,53,30.12,30.03,29.96,10,10,4,9,4,,0.00,4,,344
2013-8-4,77,64,52,64,57,52,99,77,46,30.20,30.16,30.13,10,10,10,7,1,,0.00,0,,54
2013-8-5,77,64,52,66,60,52,100,80,53,30.13,30.04,29.93,10,10,4,12,2,16,0.00,4,,169
2013-8-6,81,73,65,73,69,64,97,88,73,29.96,29.92,29.90,10,7,3,8,3,,0.00,6,,181
2013-8-7,80,73,67,77,72,67,100,94,81,29.94,29.90,29.87,10,6,0,12,4,,0.04,5,Fog-Rain-Thunderstorm,202
2013-8-8,80,74,68,76,72,69,100,94,82,29.97,29.94,29.91,10,6,0,10,2,,0.14,7,Fog-Rain,356
2013-8-9,82,72,62,70,66,62,98,83,58,30.07,30.02,29.96,10,10,7,7,3,,0.00,2,,360
2013-8-10,83,73,63,70,66,60,98,80,56,30.13,30.10,30.07,10,10,7,8,2,,0.00,1,Rain,308
2013-8-11,81,68,55,67,62,56,99,80,53,30.15,30.12,30.08,10,10,5,6,2,,0.00,1,,312
2013-8-12,81,71,61,72,67,61,100,85,61,30.08,30.00,29.92,10,8,4,8,2,,0.00,1,Thunderstorm,237
2013-8-13,75,63,51,67,60,50,100,80,52,30.15,30.03,29.91,10,8,2,13,6,17,0.00,2,,359
2013-8-14,71,58,47,55,51,47,97,79,51,30.23,30.19,30.15,10,10,10,12,2,16,0.00,2,,32
2013-8-15,72,58,45,60,53,45,100,81,53,30.21,30.16,30.12,10,10,10,8,1,,0.00,1,,73
2013-8-16,74,66,57,61,58,55,98,80,52,30.19,30.16,30.12,10,10,7,10,2,16,0.00,0,,59
2013-8-17,78,66,54,61,58,53,97,76,49,30.22,30.18,30.15,10,10,10,8,2,,0.00,1,,56
2013-8-18,81,68,56,68,62,55,98,80,49,30.20,30.15,30.11,10,9,3,6,0,,0.00,0,,164
2013-8-19,83,68,55,70,62,55,99,80,49,30.16,30.12,30.08,10,8,2,4,0,,0.00,0,,230
2013-8-20,86,72,58,70,65,58,99,83,54,30.16,30.12,30.08,10,7,0,6,0,,0.00,1,Fog,134
2013-8-21,86,74,61,75,68,62,100,83,53,30.16,30.11,30.06,10,7,0,9,2,,0.00,1,Fog,215
2013-8-22,84,74,65,72,68,64,98,86,63,30.13,30.09,30.04,10,9,0,14,5,44,0.16,2,Rain-Thunderstorm,249
2013-8-23,82,72,63,68,67,63,100,83,62,30.16,30.12,30.08,10,8,2,8,3,,0.57,2,Thunderstorm,40
2013-8-24,85,72,59,68,64,60,99,79,47,30.27,30.23,30.16,10,9,1,8,2,,0.02,1,,94
2013-8-25,86,70,56,68,61,56,97,76,42,30.32,30.27,30.21,10,10,10,6,1,,0.00,0,,177
2013-8-26,86,74,61,76,70,60,97,83,59,30.24,30.17,30.09,10,8,2,8,4,,0.00,0,,221
2013-8-27,88,80,71,76,72,70,96,81,61,30.10,30.04,29.98,10,8,4,13,7,16,0.00,0,,237
2013-8-28,92,81,70,75,72,68,94,75,51,30.02,29.98,29.95,10,9,5,17,9,21,0.00,1,Rain,269
2013-8-29,86,76,66,74,71,66,98,86,59,30.09,30.03,30.00,10,5,0,7,3,,0.00,5,Fog,39
2013-8-30,92,78,63,78,72,63,100,83,58,30.00,29.93,29.84,10,7,0,13,2,34,0.00,2,Fog-Rain-Thunderstorm,223
2013-8-31,94,80,65,79,71,65,98,80,52,29.87,29.81,29.73,10,10,3,30,6,41,0.02,1,Rain-Thunderstorm,203